sensor_id;sensor_type;location;lat;lon;timestamp;P1;durP1;ratioP1;P2;durP2;ratioP2
17596;SDS011;8917;50.942;6.946;2022-08-21T00:01:25;12.93;;;7.15;;
17596;SDS011;8917;50.942;6.946;2022-08-21T00:03:53;11.05;;;6.90;;
17596;SDS011;8917;50.942;6.946;2022-08-21T00:06:22;11.45;;;6.53;;
17596;SDS011;8917;50.942;6.946;2022-08-21T00:08:50;15.27;;;7.40;;
17596;SDS011;8917;50.942;6.946;2022-08-21T00:11:17;9.63;;;6.30;;
17596;SDS011;8917;50.942;6.946;2022-08-21T00:13:44;10.68;;;6.72;;
17596;SDS011;8917;50.942;6.946;2022-08-21T00:16:11;11.93;;;6.57;;
17596;SDS011;8917;50.942;6.946;2022-08-21T00:18:38;12.07;;;7.25;;
17596;SDS011;8917;50.942;6.946;2022-08-21T00:21:06;13.82;;;6.30;;
17596;SDS011;8917;50.942;6.946;2022-08-21T00:23:34;9.98;;;7.38;;
17596;SDS011;8917;50.942;6.946;2022-08-21T00:26:02;9.63;;;6.88;;
17596;SDS011;8917;50.942;6.946;2022-08-21T00:28:29;11.30;;;7.40;;
17596;SDS011;8917;50.942;6.946;2022-08-21T00:30:57;10.50;;;7.13;;
17596;SDS011;8917;50.942;6.946;2022-08-21T00:33:24;12.82;;;8.00;;
17596;SDS011;8917;50.942;6.946;2022-08-21T00:35:52;10.07;;;7.65;;
17596;SDS011;8917;50.942;6.946;2022-08-21T00:38:19;10.98;;;7.07;;
17596;SDS011;8917;50.942;6.946;2022-08-21T00:40:51;12.55;;;7.35;;
17596;SDS011;8917;50.942;6.946;2022-08-21T00:43:20;13.00;;;6.78;;
17596;SDS011;8917;50.942;6.946;2022-08-21T00:45:47;11.55;;;6.80;;
17596;SDS011;8917;50.942;6.946;2022-08-21T00:48:15;11.73;;;6.78;;
17596;SDS011;8917;50.942;6.946;2022-08-21T00:50:44;11.27;;;6.68;;
17596;SDS011;8917;50.942;6.946;2022-08-21T00:53:12;10.85;;;6.97;;
17596;SDS011;8917;50.942;6.946;2022-08-21T00:55:40;9.25;;;5.82;;
17596;SDS011;8917;50.942;6.946;2022-08-21T00:58:10;9.40;;;5.78;;
17596;SDS011;8917;50.942;6.946;2022-08-21T01:00:39;16.00;;;8.85;;
17596;SDS011;8917;50.942;6.946;2022-08-21T01:03:08;10.60;;;6.55;;
17596;SDS011;8917;50.942;6.946;2022-08-21T01:05:35;8.93;;;6.25;;
17596;SDS011;8917;50.942;6.946;2022-08-21T01:08:03;8.90;;;6.03;;
17596;SDS011;8917;50.942;6.946;2022-08-21T01:10:30;9.95;;;5.93;;
17596;SDS011;8917;50.942;6.946;2022-08-21T01:12:58;10.43;;;6.15;;
17596;SDS011;8917;50.942;6.946;2022-08-21T01:15:28;12.77;;;6.90;;
17596;SDS011;8917;50.942;6.946;2022-08-21T01:17:56;9.65;;;6.47;;
17596;SDS011;8917;50.942;6.946;2022-08-21T01:20:23;11.15;;;7.25;;
17596;SDS011;8917;50.942;6.946;2022-08-21T01:22:52;10.98;;;7.05;;
17596;SDS011;8917;50.942;6.946;2022-08-21T01:25:19;10.15;;;7.38;;
17596;SDS011;8917;50.942;6.946;2022-08-21T01:27:47;13.23;;;7.00;;
17596;SDS011;8917;50.942;6.946;2022-08-21T01:30:15;8.27;;;6.40;;
17596;SDS011;8917;50.942;6.946;2022-08-21T01:32:43;9.02;;;5.90;;
17596;SDS011;8917;50.942;6.946;2022-08-21T01:35:11;9.13;;;5.95;;
17596;SDS011;8917;50.942;6.946;2022-08-21T01:37:39;9.63;;;5.85;;
17596;SDS011;8917;50.942;6.946;2022-08-21T01:40:09;8.52;;;6.43;;
17596;SDS011;8917;50.942;6.946;2022-08-21T01:42:37;9.70;;;6.50;;
17596;SDS011;8917;50.942;6.946;2022-08-21T01:45:06;10.57;;;5.88;;
17596;SDS011;8917;50.942;6.946;2022-08-21T01:47:33;10.85;;;6.13;;
17596;SDS011;8917;50.942;6.946;2022-08-21T01:50:01;8.27;;;5.43;;
17596;SDS011;8917;50.942;6.946;2022-08-21T01:52:29;9.45;;;6.20;;
17596;SDS011;8917;50.942;6.946;2022-08-21T01:54:56;12.20;;;5.60;;
17596;SDS011;8917;50.942;6.946;2022-08-21T01:57:25;9.65;;;6.20;;
17596;SDS011;8917;50.942;6.946;2022-08-21T01:59:53;9.52;;;5.75;;
17596;SDS011;8917;50.942;6.946;2022-08-21T02:02:20;6.35;;;5.28;;
17596;SDS011;8917;50.942;6.946;2022-08-21T02:04:47;7.93;;;5.70;;
17596;SDS011;8917;50.942;6.946;2022-08-21T02:07:14;8.90;;;5.60;;
17596;SDS011;8917;50.942;6.946;2022-08-21T02:09:41;9.40;;;5.40;;
17596;SDS011;8917;50.942;6.946;2022-08-21T02:12:09;8.60;;;5.47;;
17596;SDS011;8917;50.942;6.946;2022-08-21T02:14:38;8.80;;;5.43;;
17596;SDS011;8917;50.942;6.946;2022-08-21T02:17:05;10.32;;;5.57;;
17596;SDS011;8917;50.942;6.946;2022-08-21T02:19:32;8.70;;;5.57;;
17596;SDS011;8917;50.942;6.946;2022-08-21T02:22:00;13.50;;;6.00;;
17596;SDS011;8917;50.942;6.946;2022-08-21T02:24:27;8.27;;;5.53;;
17596;SDS011;8917;50.942;6.946;2022-08-21T02:26:54;6.90;;;5.47;;
17596;SDS011;8917;50.942;6.946;2022-08-21T02:29:21;8.10;;;5.53;;
17596;SDS011;8917;50.942;6.946;2022-08-21T02:31:50;9.20;;;5.38;;
17596;SDS011;8917;50.942;6.946;2022-08-21T02:34:18;11.25;;;5.90;;
17596;SDS011;8917;50.942;6.946;2022-08-21T02:36:46;7.60;;;5.38;;
17596;SDS011;8917;50.942;6.946;2022-08-21T02:39:13;9.60;;;5.60;;
17596;SDS011;8917;50.942;6.946;2022-08-21T02:41:40;10.45;;;5.72;;
17596;SDS011;8917;50.942;6.946;2022-08-21T02:44:08;8.77;;;5.57;;
17596;SDS011;8917;50.942;6.946;2022-08-21T02:46:35;7.78;;;5.28;;
17596;SDS011;8917;50.942;6.946;2022-08-21T02:49:06;8.55;;;5.47;;
17596;SDS011;8917;50.942;6.946;2022-08-21T02:51:33;7.97;;;5.72;;
17596;SDS011;8917;50.942;6.946;2022-08-21T02:54:00;10.30;;;5.63;;
17596;SDS011;8917;50.942;6.946;2022-08-21T02:56:27;11.32;;;6.03;;
17596;SDS011;8917;50.942;6.946;2022-08-21T02:58:54;9.48;;;5.65;;
17596;SDS011;8917;50.942;6.946;2022-08-21T03:01:21;10.15;;;6.40;;
17596;SDS011;8917;50.942;6.946;2022-08-21T03:03:49;10.30;;;6.65;;
17596;SDS011;8917;50.942;6.946;2022-08-21T03:06:19;8.38;;;6.03;;
17596;SDS011;8917;50.942;6.946;2022-08-21T03:08:46;11.65;;;6.97;;
17596;SDS011;8917;50.942;6.946;2022-08-21T03:11:14;11.10;;;7.20;;
17596;SDS011;8917;50.942;6.946;2022-08-21T03:13:41;14.90;;;7.97;;
17596;SDS011;8917;50.942;6.946;2022-08-21T03:16:09;11.95;;;7.75;;
17596;SDS011;8917;50.942;6.946;2022-08-21T03:18:36;9.10;;;7.85;;
17596;SDS011;8917;50.942;6.946;2022-08-21T03:21:03;10.93;;;8.98;;
17596;SDS011;8917;50.942;6.946;2022-08-21T03:23:32;12.13;;;8.13;;
17596;SDS011;8917;50.942;6.946;2022-08-21T03:25:59;11.63;;;8.50;;
17596;SDS011;8917;50.942;6.946;2022-08-21T03:28:27;14.13;;;8.60;;
17596;SDS011;8917;50.942;6.946;2022-08-21T03:30:54;12.20;;;8.05;;
17596;SDS011;8917;50.942;6.946;2022-08-21T03:33:21;10.98;;;8.25;;
17596;SDS011;8917;50.942;6.946;2022-08-21T03:35:52;12.65;;;8.10;;
17596;SDS011;8917;50.942;6.946;2022-08-21T03:38:21;10.48;;;8.13;;
17596;SDS011;8917;50.942;6.946;2022-08-21T03:40:49;13.02;;;7.97;;
17596;SDS011;8917;50.942;6.946;2022-08-21T03:43:17;15.02;;;8.93;;
17596;SDS011;8917;50.942;6.946;2022-08-21T03:45:44;13.60;;;8.23;;
17596;SDS011;8917;50.942;6.946;2022-08-21T03:48:11;12.60;;;8.05;;
17596;SDS011;8917;50.942;6.946;2022-08-21T03:50:40;12.90;;;8.82;;
17596;SDS011;8917;50.942;6.946;2022-08-21T03:53:08;14.07;;;8.45;;
17596;SDS011;8917;50.942;6.946;2022-08-21T03:55:36;11.80;;;7.88;;
17596;SDS011;8917;50.942;6.946;2022-08-21T03:58:05;10.25;;;7.55;;
17596;SDS011;8917;50.942;6.946;2022-08-21T04:00:32;9.68;;;6.95;;
17596;SDS011;8917;50.942;6.946;2022-08-21T04:02:59;13.60;;;7.13;;
17596;SDS011;8917;50.942;6.946;2022-08-21T04:05:26;9.65;;;6.40;;
17596;SDS011;8917;50.942;6.946;2022-08-21T04:07:55;12.07;;;7.07;;
17596;SDS011;8917;50.942;6.946;2022-08-21T04:10:24;10.95;;;6.70;;
17596;SDS011;8917;50.942;6.946;2022-08-21T04:12:52;7.60;;;5.97;;
17596;SDS011;8917;50.942;6.946;2022-08-21T04:15:21;9.38;;;6.00;;
17596;SDS011;8917;50.942;6.946;2022-08-21T04:17:48;12.48;;;6.80;;
17596;SDS011;8917;50.942;6.946;2022-08-21T04:20:15;8.63;;;5.93;;
17596;SDS011;8917;50.942;6.946;2022-08-21T04:22:43;7.88;;;6.05;;
17596;SDS011;8917;50.942;6.946;2022-08-21T04:25:11;9.43;;;6.78;;
17596;SDS011;8917;50.942;6.946;2022-08-21T04:27:38;8.73;;;6.22;;
17596;SDS011;8917;50.942;6.946;2022-08-21T04:30:06;9.32;;;6.00;;
17596;SDS011;8917;50.942;6.946;2022-08-21T04:32:35;9.35;;;6.03;;
17596;SDS011;8917;50.942;6.946;2022-08-21T04:35:04;7.50;;;5.78;;
17596;SDS011;8917;50.942;6.946;2022-08-21T04:37:32;7.25;;;5.68;;
17596;SDS011;8917;50.942;6.946;2022-08-21T04:39:59;8.38;;;5.80;;
17596;SDS011;8917;50.942;6.946;2022-08-21T04:42:28;8.10;;;5.88;;
17596;SDS011;8917;50.942;6.946;2022-08-21T04:44:55;9.63;;;5.78;;
17596;SDS011;8917;50.942;6.946;2022-08-21T04:47:23;10.68;;;6.28;;
17596;SDS011;8917;50.942;6.946;2022-08-21T04:49:52;8.40;;;6.63;;
17596;SDS011;8917;50.942;6.946;2022-08-21T04:52:20;9.73;;;6.65;;
17596;SDS011;8917;50.942;6.946;2022-08-21T04:54:48;7.70;;;5.25;;
17596;SDS011;8917;50.942;6.946;2022-08-21T04:57:19;6.88;;;6.07;;
17596;SDS011;8917;50.942;6.946;2022-08-21T04:59:47;9.85;;;6.45;;
17596;SDS011;8917;50.942;6.946;2022-08-21T05:02:15;10.00;;;6.50;;
17596;SDS011;8917;50.942;6.946;2022-08-21T05:04:43;8.00;;;6.07;;
17596;SDS011;8917;50.942;6.946;2022-08-21T05:07:15;9.07;;;6.10;;
17596;SDS011;8917;50.942;6.946;2022-08-21T05:09:43;9.25;;;5.82;;
17596;SDS011;8917;50.942;6.946;2022-08-21T05:12:11;10.77;;;6.10;;
17596;SDS011;8917;50.942;6.946;2022-08-21T05:14:38;9.13;;;5.68;;
17596;SDS011;8917;50.942;6.946;2022-08-21T05:17:07;8.10;;;5.80;;
17596;SDS011;8917;50.942;6.946;2022-08-21T05:19:37;9.70;;;6.22;;
17596;SDS011;8917;50.942;6.946;2022-08-21T05:22:05;9.95;;;6.55;;
17596;SDS011;8917;50.942;6.946;2022-08-21T05:24:34;13.77;;;6.55;;
17596;SDS011;8917;50.942;6.946;2022-08-21T05:27:01;9.38;;;5.93;;
17596;SDS011;8917;50.942;6.946;2022-08-21T05:29:28;6.22;;;5.22;;
17596;SDS011;8917;50.942;6.946;2022-08-21T05:31:59;10.82;;;5.45;;
17596;SDS011;8917;50.942;6.946;2022-08-21T05:34:26;7.53;;;5.20;;
17596;SDS011;8917;50.942;6.946;2022-08-21T05:36:53;10.70;;;5.32;;
17596;SDS011;8917;50.942;6.946;2022-08-21T05:39:21;8.52;;;5.20;;
17596;SDS011;8917;50.942;6.946;2022-08-21T05:41:49;7.53;;;4.85;;
17596;SDS011;8917;50.942;6.946;2022-08-21T05:44:16;9.32;;;4.80;;
17596;SDS011;8917;50.942;6.946;2022-08-21T05:46:44;9.18;;;5.20;;
17596;SDS011;8917;50.942;6.946;2022-08-21T05:49:11;10.15;;;5.05;;
17596;SDS011;8917;50.942;6.946;2022-08-21T05:51:39;6.75;;;4.90;;
17596;SDS011;8917;50.942;6.946;2022-08-21T05:54:06;10.40;;;5.18;;
17596;SDS011;8917;50.942;6.946;2022-08-21T05:56:34;7.25;;;5.10;;
17596;SDS011;8917;50.942;6.946;2022-08-21T05:59:02;10.13;;;4.80;;
17596;SDS011;8917;50.942;6.946;2022-08-21T06:01:30;8.63;;;5.15;;
17596;SDS011;8917;50.942;6.946;2022-08-21T06:03:57;6.60;;;4.70;;
17596;SDS011;8917;50.942;6.946;2022-08-21T06:06:24;9.57;;;4.50;;
17596;SDS011;8917;50.942;6.946;2022-08-21T06:08:51;7.22;;;4.82;;
17596;SDS011;8917;50.942;6.946;2022-08-21T06:11:19;6.32;;;4.30;;
17596;SDS011;8917;50.942;6.946;2022-08-21T06:13:46;8.30;;;4.85;;
17596;SDS011;8917;50.942;6.946;2022-08-21T06:16:15;8.95;;;4.72;;
17596;SDS011;8917;50.942;6.946;2022-08-21T06:18:43;11.95;;;4.55;;
17596;SDS011;8917;50.942;6.946;2022-08-21T06:21:11;8.43;;;5.25;;
17596;SDS011;8917;50.942;6.946;2022-08-21T06:23:39;9.00;;;4.88;;
17596;SDS011;8917;50.942;6.946;2022-08-21T06:26:06;9.88;;;4.70;;
17596;SDS011;8917;50.942;6.946;2022-08-21T06:28:34;7.28;;;4.78;;
17596;SDS011;8917;50.942;6.946;2022-08-21T06:31:09;8.77;;;4.55;;
17596;SDS011;8917;50.942;6.946;2022-08-21T06:33:38;8.10;;;4.97;;
17596;SDS011;8917;50.942;6.946;2022-08-21T06:36:05;9.23;;;5.00;;
17596;SDS011;8917;50.942;6.946;2022-08-21T06:38:32;7.50;;;5.00;;
17596;SDS011;8917;50.942;6.946;2022-08-21T06:41:00;6.68;;;4.57;;
17596;SDS011;8917;50.942;6.946;2022-08-21T06:43:27;9.10;;;4.28;;
17596;SDS011;8917;50.942;6.946;2022-08-21T06:45:54;6.55;;;4.32;;
17596;SDS011;8917;50.942;6.946;2022-08-21T06:48:22;6.25;;;4.22;;
17596;SDS011;8917;50.942;6.946;2022-08-21T06:50:51;6.32;;;4.57;;
17596;SDS011;8917;50.942;6.946;2022-08-21T06:53:19;9.20;;;4.47;;
17596;SDS011;8917;50.942;6.946;2022-08-21T06:55:47;8.80;;;4.57;;
17596;SDS011;8917;50.942;6.946;2022-08-21T06:58:14;6.60;;;4.80;;
17596;SDS011;8917;50.942;6.946;2022-08-21T07:00:42;10.95;;;4.88;;
17596;SDS011;8917;50.942;6.946;2022-08-21T07:03:15;9.18;;;3.95;;
17596;SDS011;8917;50.942;6.946;2022-08-21T07:05:42;10.30;;;3.85;;
17596;SDS011;8917;50.942;6.946;2022-08-21T07:08:11;5.38;;;2.92;;
17596;SDS011;8917;50.942;6.946;2022-08-21T07:10:38;5.32;;;2.70;;
17596;SDS011;8917;50.942;6.946;2022-08-21T07:13:06;4.90;;;2.95;;
17596;SDS011;8917;50.942;6.946;2022-08-21T07:15:33;7.03;;;3.15;;
17596;SDS011;8917;50.942;6.946;2022-08-21T07:18:00;6.72;;;3.00;;
17596;SDS011;8917;50.942;6.946;2022-08-21T07:20:28;5.72;;;3.20;;
17596;SDS011;8917;50.942;6.946;2022-08-21T07:22:56;5.63;;;2.55;;
17596;SDS011;8917;50.942;6.946;2022-08-21T07:25:25;6.05;;;3.13;;
17596;SDS011;8917;50.942;6.946;2022-08-21T07:27:52;6.50;;;3.03;;
17596;SDS011;8917;50.942;6.946;2022-08-21T07:30:20;6.50;;;3.47;;
17596;SDS011;8917;50.942;6.946;2022-08-21T07:32:48;10.68;;;2.92;;
17596;SDS011;8917;50.942;6.946;2022-08-21T07:35:15;6.70;;;3.10;;
17596;SDS011;8917;50.942;6.946;2022-08-21T07:37:42;6.25;;;3.53;;
17596;SDS011;8917;50.942;6.946;2022-08-21T07:40:10;5.63;;;2.85;;
17596;SDS011;8917;50.942;6.946;2022-08-21T07:42:41;6.32;;;2.70;;
17596;SDS011;8917;50.942;6.946;2022-08-21T07:45:08;5.82;;;2.97;;
17596;SDS011;8917;50.942;6.946;2022-08-21T07:47:36;6.88;;;3.30;;
17596;SDS011;8917;50.942;6.946;2022-08-21T07:50:04;4.93;;;2.90;;
17596;SDS011;8917;50.942;6.946;2022-08-21T07:52:32;7.55;;;3.28;;
17596;SDS011;8917;50.942;6.946;2022-08-21T07:54:59;5.63;;;2.50;;
17596;SDS011;8917;50.942;6.946;2022-08-21T07:57:27;4.53;;;2.58;;
17596;SDS011;8917;50.942;6.946;2022-08-21T07:59:56;6.30;;;2.58;;
17596;SDS011;8917;50.942;6.946;2022-08-21T08:02:23;6.93;;;3.00;;
17596;SDS011;8917;50.942;6.946;2022-08-21T08:04:51;4.63;;;2.53;;
17596;SDS011;8917;50.942;6.946;2022-08-21T08:07:18;7.45;;;2.45;;
17596;SDS011;8917;50.942;6.946;2022-08-21T08:09:45;4.53;;;2.03;;
17596;SDS011;8917;50.942;6.946;2022-08-21T08:12:13;4.55;;;2.40;;
17596;SDS011;8917;50.942;6.946;2022-08-21T08:14:40;4.80;;;2.33;;
17596;SDS011;8917;50.942;6.946;2022-08-21T08:17:09;5.50;;;1.95;;
17596;SDS011;8917;50.942;6.946;2022-08-21T08:19:36;4.43;;;2.35;;
17596;SDS011;8917;50.942;6.946;2022-08-21T08:22:11;3.78;;;1.75;;
17596;SDS011;8917;50.942;6.946;2022-08-21T08:24:39;7.05;;;2.72;;
17596;SDS011;8917;50.942;6.946;2022-08-21T08:27:06;6.65;;;2.30;;
17596;SDS011;8917;50.942;6.946;2022-08-21T08:29:33;8.02;;;1.98;;
17596;SDS011;8917;50.942;6.946;2022-08-21T08:32:00;9.90;;;2.42;;
17596;SDS011;8917;50.942;6.946;2022-08-21T08:34:29;5.60;;;2.10;;
17596;SDS011;8917;50.942;6.946;2022-08-21T08:36:56;5.60;;;2.17;;
17596;SDS011;8917;50.942;6.946;2022-08-21T08:39:24;8.00;;;2.67;;
17596;SDS011;8917;50.942;6.946;2022-08-21T08:41:51;4.55;;;2.10;;
17596;SDS011;8917;50.942;6.946;2022-08-21T08:44:21;5.93;;;2.45;;
17596;SDS011;8917;50.942;6.946;2022-08-21T08:46:49;7.90;;;2.20;;
17596;SDS011;8917;50.942;6.946;2022-08-21T08:49:18;3.95;;;1.92;;
17596;SDS011;8917;50.942;6.946;2022-08-21T08:51:50;7.05;;;1.77;;
17596;SDS011;8917;50.942;6.946;2022-08-21T08:54:19;5.47;;;2.10;;
17596;SDS011;8917;50.942;6.946;2022-08-21T08:56:49;6.63;;;2.15;;
17596;SDS011;8917;50.942;6.946;2022-08-21T08:59:17;7.63;;;2.40;;
17596;SDS011;8917;50.942;6.946;2022-08-21T09:01:45;7.00;;;2.47;;
17596;SDS011;8917;50.942;6.946;2022-08-21T09:04:13;6.07;;;2.28;;
17596;SDS011;8917;50.942;6.946;2022-08-21T09:06:48;4.88;;;2.17;;
17596;SDS011;8917;50.942;6.946;2022-08-21T09:09:25;5.45;;;2.83;;
17596;SDS011;8917;50.942;6.946;2022-08-21T09:11:57;6.03;;;2.20;;
17596;SDS011;8917;50.942;6.946;2022-08-21T09:14:29;6.22;;;1.83;;
17596;SDS011;8917;50.942;6.946;2022-08-21T09:17:02;6.20;;;2.10;;
17596;SDS011;8917;50.942;6.946;2022-08-21T09:19:35;3.70;;;1.75;;
17596;SDS011;8917;50.942;6.946;2022-08-21T09:22:06;6.25;;;2.22;;
17596;SDS011;8917;50.942;6.946;2022-08-21T09:24:39;9.38;;;2.20;;
17596;SDS011;8917;50.942;6.946;2022-08-21T09:27:12;8.60;;;2.83;;
17596;SDS011;8917;50.942;6.946;2022-08-21T09:29:41;6.45;;;1.88;;
17596;SDS011;8917;50.942;6.946;2022-08-21T09:32:10;4.38;;;2.10;;
17596;SDS011;8917;50.942;6.946;2022-08-21T09:34:37;6.85;;;2.40;;
17596;SDS011;8917;50.942;6.946;2022-08-21T09:37:04;4.53;;;2.35;;
17596;SDS011;8917;50.942;6.946;2022-08-21T09:39:44;7.88;;;2.70;;
17596;SDS011;8917;50.942;6.946;2022-08-21T09:42:11;6.95;;;2.47;;
17596;SDS011;8917;50.942;6.946;2022-08-21T09:44:47;3.47;;;1.73;;
17596;SDS011;8917;50.942;6.946;2022-08-21T09:47:18;6.10;;;2.33;;
17596;SDS011;8917;50.942;6.946;2022-08-21T09:49:46;5.72;;;2.30;;
17596;SDS011;8917;50.942;6.946;2022-08-21T09:52:15;5.25;;;2.53;;
17596;SDS011;8917;50.942;6.946;2022-08-21T09:54:44;5.05;;;2.10;;
17596;SDS011;8917;50.942;6.946;2022-08-21T09:57:14;5.75;;;2.45;;
17596;SDS011;8917;50.942;6.946;2022-08-21T10:00:07;6.13;;;2.10;;
17596;SDS011;8917;50.942;6.946;2022-08-21T10:02:36;6.80;;;2.20;;
17596;SDS011;8917;50.942;6.946;2022-08-21T10:05:07;5.35;;;2.22;;
17596;SDS011;8917;50.942;6.946;2022-08-21T10:07:36;5.93;;;2.00;;
17596;SDS011;8917;50.942;6.946;2022-08-21T10:10:07;4.32;;;2.10;;
17596;SDS011;8917;50.942;6.946;2022-08-21T10:12:40;4.30;;;2.10;;
17596;SDS011;8917;50.942;6.946;2022-08-21T10:15:11;3.72;;;2.03;;
17596;SDS011;8917;50.942;6.946;2022-08-21T10:17:43;6.45;;;2.30;;
17596;SDS011;8917;50.942;6.946;2022-08-21T10:20:13;5.07;;;1.98;;
17596;SDS011;8917;50.942;6.946;2022-08-21T10:22:46;5.63;;;2.30;;
17596;SDS011;8917;50.942;6.946;2022-08-21T10:25:21;5.05;;;2.17;;
17596;SDS011;8917;50.942;6.946;2022-08-21T10:27:53;7.53;;;2.00;;
17596;SDS011;8917;50.942;6.946;2022-08-21T10:30:25;6.95;;;2.20;;
17596;SDS011;8917;50.942;6.946;2022-08-21T10:33:00;4.93;;;1.95;;
17596;SDS011;8917;50.942;6.946;2022-08-21T10:35:33;6.35;;;2.35;;
17596;SDS011;8917;50.942;6.946;2022-08-21T10:38:04;6.38;;;2.00;;
17596;SDS011;8917;50.942;6.946;2022-08-21T10:40:39;5.00;;;1.77;;
17596;SDS011;8917;50.942;6.946;2022-08-21T10:43:13;7.60;;;2.25;;
17596;SDS011;8917;50.942;6.946;2022-08-21T10:45:46;4.55;;;1.83;;
17596;SDS011;8917;50.942;6.946;2022-08-21T10:48:18;3.75;;;1.90;;
17596;SDS011;8917;50.942;6.946;2022-08-21T10:50:50;5.38;;;2.05;;
17596;SDS011;8917;50.942;6.946;2022-08-21T10:53:22;3.97;;;1.70;;
17596;SDS011;8917;50.942;6.946;2022-08-21T10:55:56;4.88;;;1.85;;
17596;SDS011;8917;50.942;6.946;2022-08-21T10:58:28;7.43;;;2.10;;
17596;SDS011;8917;50.942;6.946;2022-08-21T11:00:56;8.82;;;3.50;;
17596;SDS011;8917;50.942;6.946;2022-08-21T11:03:27;3.17;;;1.50;;
17596;SDS011;8917;50.942;6.946;2022-08-21T11:05:58;6.45;;;2.00;;
17596;SDS011;8917;50.942;6.946;2022-08-21T11:08:28;7.65;;;2.30;;
17596;SDS011;8917;50.942;6.946;2022-08-21T11:10:59;4.38;;;2.03;;
17596;SDS011;8917;50.942;6.946;2022-08-21T11:13:29;6.82;;;1.88;;
17596;SDS011;8917;50.942;6.946;2022-08-21T11:16:01;5.18;;;1.98;;
17596;SDS011;8917;50.942;6.946;2022-08-21T11:18:31;2.08;;;1.60;;
17596;SDS011;8917;50.942;6.946;2022-08-21T11:21:01;3.25;;;1.48;;
17596;SDS011;8917;50.942;6.946;2022-08-21T11:23:33;5.85;;;1.92;;
17596;SDS011;8917;50.942;6.946;2022-08-21T11:26:07;4.78;;;1.85;;
17596;SDS011;8917;50.942;6.946;2022-08-21T11:28:36;3.53;;;1.80;;
17596;SDS011;8917;50.942;6.946;2022-08-21T11:31:06;4.63;;;1.90;;
17596;SDS011;8917;50.942;6.946;2022-08-21T11:33:50;5.57;;;1.85;;
17596;SDS011;8917;50.942;6.946;2022-08-21T11:36:23;3.63;;;1.85;;
17596;SDS011;8917;50.942;6.946;2022-08-21T11:38:55;6.28;;;1.88;;
17596;SDS011;8917;50.942;6.946;2022-08-21T11:41:28;4.65;;;2.10;;
17596;SDS011;8917;50.942;6.946;2022-08-21T11:43:59;5.43;;;1.88;;
17596;SDS011;8917;50.942;6.946;2022-08-21T11:46:31;5.13;;;2.10;;
17596;SDS011;8917;50.942;6.946;2022-08-21T11:49:03;3.63;;;1.60;;
17596;SDS011;8917;50.942;6.946;2022-08-21T11:51:33;5.38;;;2.15;;
17596;SDS011;8917;50.942;6.946;2022-08-21T11:54:04;6.13;;;2.13;;
17596;SDS011;8917;50.942;6.946;2022-08-21T11:56:35;5.07;;;2.53;;
17596;SDS011;8917;50.942;6.946;2022-08-21T11:59:09;3.90;;;1.90;;
17596;SDS011;8917;50.942;6.946;2022-08-21T12:01:39;4.03;;;2.05;;
17596;SDS011;8917;50.942;6.946;2022-08-21T12:04:10;6.30;;;1.90;;
17596;SDS011;8917;50.942;6.946;2022-08-21T12:06:43;3.33;;;1.60;;
17596;SDS011;8917;50.942;6.946;2022-08-21T12:09:27;3.10;;;1.50;;
17596;SDS011;8917;50.942;6.946;2022-08-21T12:12:02;5.85;;;2.05;;
17596;SDS011;8917;50.942;6.946;2022-08-21T12:14:35;4.38;;;1.98;;
17596;SDS011;8917;50.942;6.946;2022-08-21T12:17:04;5.82;;;1.63;;
17596;SDS011;8917;50.942;6.946;2022-08-21T12:19:31;6.60;;;2.10;;
17596;SDS011;8917;50.942;6.946;2022-08-21T12:22:07;4.25;;;1.58;;
17596;SDS011;8917;50.942;6.946;2022-08-21T12:24:36;3.45;;;1.52;;
17596;SDS011;8917;50.942;6.946;2022-08-21T12:27:17;5.35;;;1.75;;
17596;SDS011;8917;50.942;6.946;2022-08-21T12:29:58;5.80;;;1.90;;
17596;SDS011;8917;50.942;6.946;2022-08-21T12:32:26;4.45;;;2.05;;
17596;SDS011;8917;50.942;6.946;2022-08-21T12:34:55;5.85;;;1.92;;
17596;SDS011;8917;50.942;6.946;2022-08-21T12:37:25;4.90;;;2.05;;
17596;SDS011;8917;50.942;6.946;2022-08-21T12:39:57;3.15;;;1.75;;
17596;SDS011;8917;50.942;6.946;2022-08-21T12:42:31;3.53;;;1.85;;
17596;SDS011;8917;50.942;6.946;2022-08-21T12:45:03;5.15;;;1.80;;
17596;SDS011;8917;50.942;6.946;2022-08-21T12:47:32;7.00;;;2.05;;
17596;SDS011;8917;50.942;6.946;2022-08-21T12:50:03;4.00;;;1.38;;
17596;SDS011;8917;50.942;6.946;2022-08-21T12:52:32;5.43;;;2.03;;
17596;SDS011;8917;50.942;6.946;2022-08-21T12:55:01;3.83;;;1.60;;
17596;SDS011;8917;50.942;6.946;2022-08-21T12:57:30;5.88;;;2.20;;
17596;SDS011;8917;50.942;6.946;2022-08-21T12:59:58;5.28;;;1.50;;
17596;SDS011;8917;50.942;6.946;2022-08-21T13:02:28;4.47;;;1.88;;
17596;SDS011;8917;50.942;6.946;2022-08-21T13:04:56;3.58;;;1.52;;
17596;SDS011;8917;50.942;6.946;2022-08-21T13:07:27;5.32;;;1.85;;
17596;SDS011;8917;50.942;6.946;2022-08-21T13:10:00;8.70;;;2.20;;
17596;SDS011;8917;50.942;6.946;2022-08-21T13:12:32;7.97;;;2.42;;
17596;SDS011;8917;50.942;6.946;2022-08-21T13:15:00;3.95;;;2.00;;
17596;SDS011;8917;50.942;6.946;2022-08-21T13:17:30;3.10;;;1.77;;
17596;SDS011;8917;50.942;6.946;2022-08-21T13:19:59;4.88;;;1.90;;
17596;SDS011;8917;50.942;6.946;2022-08-21T13:22:27;6.97;;;2.40;;
17596;SDS011;8917;50.942;6.946;2022-08-21T13:24:55;4.90;;;2.05;;
17596;SDS011;8917;50.942;6.946;2022-08-21T13:27:24;3.92;;;1.90;;
17596;SDS011;8917;50.942;6.946;2022-08-21T13:30:05;3.53;;;1.52;;
17596;SDS011;8917;50.942;6.946;2022-08-21T13:32:33;4.65;;;2.10;;
17596;SDS011;8917;50.942;6.946;2022-08-21T13:35:09;5.60;;;1.80;;
17596;SDS011;8917;50.942;6.946;2022-08-21T13:37:37;4.05;;;2.15;;
17596;SDS011;8917;50.942;6.946;2022-08-21T13:40:06;4.60;;;1.63;;
17596;SDS011;8917;50.942;6.946;2022-08-21T13:42:34;3.72;;;1.45;;
17596;SDS011;8917;50.942;6.946;2022-08-21T13:45:01;4.57;;;2.50;;
17596;SDS011;8917;50.942;6.946;2022-08-21T13:47:30;4.32;;;1.67;;
17596;SDS011;8917;50.942;6.946;2022-08-21T13:49:57;4.05;;;1.60;;
17596;SDS011;8917;50.942;6.946;2022-08-21T13:52:25;3.25;;;1.70;;
17596;SDS011;8917;50.942;6.946;2022-08-21T13:54:54;4.80;;;2.53;;
17596;SDS011;8917;50.942;6.946;2022-08-21T13:57:25;3.97;;;1.77;;
17596;SDS011;8917;50.942;6.946;2022-08-21T13:59:52;5.43;;;2.08;;
17596;SDS011;8917;50.942;6.946;2022-08-21T14:02:20;3.92;;;1.73;;
17596;SDS011;8917;50.942;6.946;2022-08-21T14:04:52;5.30;;;1.90;;
17596;SDS011;8917;50.942;6.946;2022-08-21T14:07:24;4.63;;;1.98;;
17596;SDS011;8917;50.942;6.946;2022-08-21T14:09:51;4.05;;;2.00;;
17596;SDS011;8917;50.942;6.946;2022-08-21T14:12:26;3.90;;;1.83;;
17596;SDS011;8917;50.942;6.946;2022-08-21T14:14:55;3.33;;;2.00;;
17596;SDS011;8917;50.942;6.946;2022-08-21T14:17:27;3.63;;;1.77;;
17596;SDS011;8917;50.942;6.946;2022-08-21T14:19:55;4.63;;;1.80;;
17596;SDS011;8917;50.942;6.946;2022-08-21T14:22:27;4.78;;;2.47;;
17596;SDS011;8917;50.942;6.946;2022-08-21T14:24:59;6.90;;;2.20;;
17596;SDS011;8917;50.942;6.946;2022-08-21T14:27:28;2.63;;;1.60;;
17596;SDS011;8917;50.942;6.946;2022-08-21T14:29:57;2.75;;;1.40;;
17596;SDS011;8917;50.942;6.946;2022-08-21T14:32:25;6.13;;;1.98;;
17596;SDS011;8917;50.942;6.946;2022-08-21T14:34:56;6.03;;;1.63;;
17596;SDS011;8917;50.942;6.946;2022-08-21T14:37:23;4.88;;;1.90;;
17596;SDS011;8917;50.942;6.946;2022-08-21T14:39:51;5.47;;;2.08;;
17596;SDS011;8917;50.942;6.946;2022-08-21T14:42:18;3.05;;;2.17;;
17596;SDS011;8917;50.942;6.946;2022-08-21T14:44:45;4.30;;;1.70;;
17596;SDS011;8917;50.942;6.946;2022-08-21T14:47:13;3.38;;;1.63;;
17596;SDS011;8917;50.942;6.946;2022-08-21T14:49:40;3.42;;;1.98;;
17596;SDS011;8917;50.942;6.946;2022-08-21T14:52:10;4.85;;;1.63;;
17596;SDS011;8917;50.942;6.946;2022-08-21T14:54:38;4.50;;;1.90;;
17596;SDS011;8917;50.942;6.946;2022-08-21T14:57:06;4.47;;;1.88;;
17596;SDS011;8917;50.942;6.946;2022-08-21T14:59:34;4.13;;;2.03;;
17596;SDS011;8917;50.942;6.946;2022-08-21T15:02:02;3.38;;;1.95;;
17596;SDS011;8917;50.942;6.946;2022-08-21T15:04:30;4.32;;;2.45;;
17596;SDS011;8917;50.942;6.946;2022-08-21T15:06:57;3.92;;;2.10;;
17596;SDS011;8917;50.942;6.946;2022-08-21T15:09:26;5.07;;;1.75;;